Time;durP1;ratioP1;P1;durP2;ratioP2;P2;SDS_P1;SDS_P2;PMS_P1;PMS_P2;Temp;Humidity;BMP_temperature;BMP_pressure;BME280_temperature;BME280_humidity;BME280_pressure;Samples;Min_cycle;Max_cycle;Signal;HPM_P1;HPM_P2
2022/07/25 00:00:35;;;;;;;6.70;2.88;;;24.00;62.70;;;;;;5012624;28;20076;-83
2022/07/25 00:03:03;;;;;;;3.20;2.20;;;24.00;62.90;;;;;;5008089;28;20045;-82
2022/07/25 00:05:35;;;;;;;3.67;2.05;;;24.10;62.90;;;;;;5041896;28;20061;-82
2022/07/25 00:08:04;;;;;;;3.03;2.33;;;24.00;62.10;;;;;;5023670;28;20065;-81
2022/07/25 00:10:32;;;;;;;5.78;2.38;;;24.00;61.70;;;;;;5021334;28;20049;-82
2022/07/25 00:12:59;;;;;;;3.67;2.40;;;24.00;62.00;;;;;;5014141;28;20041;-82
2022/07/25 00:15:27;;;;;;;2.88;2.13;;;23.90;62.00;;;;;;5030554;28;20509;-82
2022/07/25 00:17:54;;;;;;;3.35;2.67;;;23.90;62.50;;;;;;5040502;28;20048;-83
2022/07/25 00:20:21;;;;;;;3.20;2.10;;;23.90;62.40;;;;;;5029123;28;20038;-82
2022/07/25 00:22:49;;;;;;;2.20;1.80;;;23.90;62.20;;;;;;5009855;28;20045;-83
2022/07/25 00:25:16;;;;;;;3.63;2.05;;;23.90;62.30;;;;;;5031753;28;20111;-82
2022/07/25 00:27:43;;;;;;;3.50;1.95;;;23.80;62.30;;;;;;5005502;28;20042;-83
2022/07/25 00:30:11;;;;;;;4.20;2.10;;;23.80;62.60;;;;;;5016569;28;20049;-83
2022/07/25 00:32:39;;;;;;;4.38;2.00;;;23.80;62.10;;;;;;5010473;28;20061;-84
2022/07/25 00:35:07;;;;;;;2.50;1.90;;;23.70;62.50;;;;;;5033448;28;20038;-83
2022/07/25 00:37:34;;;;;;;3.17;1.85;;;23.70;62.10;;;;;;5028612;28;20069;-84
2022/07/25 00:40:02;;;;;;;2.92;2.00;;;23.70;62.20;;;;;;5030040;28;20045;-85
2022/07/25 00:42:29;;;;;;;2.42;2.10;;;23.60;62.00;;;;;;5017779;28;20053;-84
2022/07/25 00:44:58;;;;;;;2.53;1.67;;;23.60;62.50;;;;;;5024850;28;20038;-84
2022/07/25 00:47:26;;;;;;;4.05;1.98;;;23.60;62.50;;;;;;5046766;28;20510;-84
2022/07/25 00:49:53;;;;;;;2.47;1.52;;;23.60;62.90;;;;;;5028938;28;20054;-84
2022/07/25 00:52:23;;;;;;;3.97;2.13;;;23.60;63.20;;;;;;5034149;28;20045;-85
2022/07/25 00:54:50;;;;;;;2.53;1.90;;;23.50;63.10;;;;;;5015885;28;20052;-84
2022/07/25 00:57:18;;;;;;;4.25;2.08;;;23.50;63.00;;;;;;5033077;28;20045;-84
2022/07/25 00:59:45;;;;;;;3.53;2.10;;;23.50;63.10;;;;;;5032083;28;20169;-84
2022/07/25 01:02:13;;;;;;;3.50;2.20;;;23.40;63.50;;;;;;5031552;28;20048;-84
2022/07/25 01:04:40;;;;;;;5.45;2.22;;;23.40;63.70;;;;;;5032264;28;20069;-83
2022/07/25 01:07:07;;;;;;;3.70;2.33;;;23.30;64.10;;;;;;5028535;28;20282;-84
2022/07/25 01:09:36;;;;;;;5.00;2.15;;;23.30;64.60;;;;;;5017548;28;20133;-84
2022/07/25 01:12:04;;;;;;;4.38;2.88;;;23.20;64.80;;;;;;5048364;28;20060;-84
2022/07/25 01:14:37;;;;;;;5.35;1.80;;;23.20;65.20;;;;;;5013051;28;20478;-83
2022/07/25 01:17:04;;;;;;;3.15;2.08;;;23.10;65.20;;;;;;5030257;28;20054;-84
2022/07/25 01:19:32;;;;;;;4.47;2.38;;;23.10;65.40;;;;;;5017739;28;20053;-84
2022/07/25 01:22:00;;;;;;;4.28;2.67;;;23.10;65.70;;;;;;5033690;28;20065;-84
2022/07/25 01:24:28;;;;;;;5.00;2.58;;;23.10;65.70;;;;;;5006387;28;20056;-84
2022/07/25 01:26:58;;;;;;;6.43;2.28;;;23.00;65.80;;;;;;5016372;28;20097;-85
2022/07/25 01:29:25;;;;;;;4.13;2.33;;;23.00;66.00;;;;;;5032529;28;20490;-84
2022/07/25 01:31:53;;;;;;;3.55;2.63;;;22.90;66.20;;;;;;5031860;28;20048;-86
2022/07/25 01:34:20;;;;;;;2.75;2.28;;;22.90;66.50;;;;;;5015579;28;20482;-85
2022/07/25 01:36:47;;;;;;;3.70;2.85;;;22.80;66.70;;;;;;5028451;28;20045;-85
2022/07/25 01:39:15;;;;;;;3.45;2.53;;;22.80;68.00;;;;;;5033055;28;20038;-85
2022/07/25 01:41:42;;;;;;;5.05;2.85;;;22.80;67.60;;;;;;5017056;28;20103;-85
2022/07/25 01:44:10;;;;;;;4.50;2.67;;;22.60;67.20;;;;;;5020533;28;20133;-84
2022/07/25 01:46:37;;;;;;;3.08;2.28;;;22.60;67.50;;;;;;5032016;28;20073;-84
2022/07/25 01:49:04;;;;;;;3.30;2.30;;;22.50;67.40;;;;;;5016816;28;20061;-85
2022/07/25 01:51:32;;;;;;;4.53;2.28;;;22.50;67.70;;;;;;5013679;28;20042;-84
2022/07/25 01:53:59;;;;;;;3.47;2.22;;;22.50;67.70;;;;;;5034562;28;20076;-84
2022/07/25 01:56:29;;;;;;;4.47;2.47;;;22.50;68.20;;;;;;5031742;28;20049;-85
2022/07/25 01:58:58;;;;;;;3.65;2.20;;;22.40;68.30;;;;;;5012414;28;20819;-85
2022/07/25 02:01:26;;;;;;;2.88;2.25;;;22.40;68.30;;;;;;5031845;28;20041;-85
2022/07/25 02:03:53;;;;;;;8.30;2.70;;;22.40;68.40;;;;;;5035153;28;20103;-84
2022/07/25 02:06:21;;;;;;;5.25;2.42;;;22.40;68.40;;;;;;5030731;28;20046;-85
2022/07/25 02:08:48;;;;;;;4.95;2.55;;;22.40;68.30;;;;;;5011272;28;20054;-85
2022/07/25 02:11:16;;;;;;;3.42;2.20;;;22.30;68.30;;;;;;5008920;28;20168;-85
2022/07/25 02:13:43;;;;;;;2.72;2.15;;;22.40;68.80;;;;;;5032236;28;20045;-85
2022/07/25 02:16:11;;;;;;;6.10;3.00;;;22.30;68.90;;;;;;5033496;28;20073;-85
2022/07/25 02:18:38;;;;;;;7.15;3.13;;;22.20;68.90;;;;;;5030302;28;20137;-84
2022/07/25 02:21:08;;;;;;;4.68;2.60;;;22.30;69.10;;;;;;5030673;28;20037;-85
2022/07/25 02:23:41;;;;;;;5.70;2.58;;;22.20;68.90;;;;;;5037336;28;20072;-86
2022/07/25 02:26:10;;;;;;;5.20;2.75;;;22.20;69.10;;;;;;5029072;28;20046;-84
2022/07/25 02:28:38;;;;;;;4.10;2.28;;;22.10;69.30;;;;;;5029880;28;20051;-85
2022/07/25 02:31:06;;;;;;;5.45;2.55;;;22.00;69.10;;;;;;5052414;28;20652;-86
2022/07/25 02:33:34;;;;;;;3.55;2.20;;;22.00;69.10;;;;;;5031591;28;20481;-85
2022/07/25 02:36:01;;;;;;;3.85;2.70;;;21.80;69.40;;;;;;5027786;28;20042;-85
2022/07/25 02:38:29;;;;;;;3.35;2.00;;;21.90;69.50;;;;;;5045653;28;20050;-85
2022/07/25 02:40:56;;;;;;;3.83;2.95;;;21.90;69.50;;;;;;5031889;28;20044;-85
2022/07/25 02:43:24;;;;;;;4.20;2.53;;;22.00;69.60;;;;;;5024647;28;20056;-84
2022/07/25 02:45:52;;;;;;;3.78;2.42;;;21.90;69.70;;;;;;5009150;28;20490;-85
2022/07/25 02:48:19;;;;;;;2.95;1.90;;;21.90;70.30;;;;;;5027508;28;20049;-85
2022/07/25 02:50:47;;;;;;;4.13;2.65;;;21.80;70.00;;;;;;5011649;28;20136;-85
2022/07/25 02:53:14;;;;;;;4.85;2.88;;;21.80;70.30;;;;;;5003362;28;20042;-85
2022/07/25 02:56:01;;;;;;;4.30;2.28;;;21.80;70.10;;;;;;5012542;28;20037;-85
2022/07/25 02:58:31;;;;;;;3.47;2.03;;;21.80;70.30;;;;;;5012765;28;20494;-86
2022/07/25 03:00:59;;;;;;;2.97;2.30;;;21.70;70.30;;;;;;5028294;28;20049;-86
2022/07/25 03:03:26;;;;;;;4.05;2.33;;;21.70;70.60;;;;;;5013979;28;20455;-85
2022/07/25 03:05:54;;;;;;;2.88;2.33;;;21.80;70.50;;;;;;5015977;28;20038;-86
2022/07/25 03:08:21;;;;;;;4.43;2.55;;;21.80;71.10;;;;;;5028068;28;20046;-85
2022/07/25 03:10:49;;;;;;;6.43;2.47;;;21.80;70.80;;;;;;5030730;28;20049;-86
2022/07/25 03:13:16;;;;;;;4.90;2.72;;;21.70;70.50;;;;;;5006523;28;20049;-87
2022/07/25 03:15:45;;;;;;;5.00;2.85;;;21.60;70.60;;;;;;5011460;28;20055;-86
2022/07/25 03:18:13;;;;;;;5.07;3.13;;;21.60;70.60;;;;;;5014210;28;20053;-87
2022/07/25 03:20:40;;;;;;;6.97;2.70;;;21.50;70.60;;;;;;5015164;28;20081;-86
2022/07/25 03:23:08;;;;;;;5.10;2.65;;;21.50;70.80;;;;;;5021687;28;20485;-85
2022/07/25 03:25:35;;;;;;;4.53;2.92;;;21.50;70.90;;;;;;5030475;28;20509;-86
2022/07/25 03:28:03;;;;;;;4.63;2.30;;;21.50;71.00;;;;;;5011487;28;20042;-86
2022/07/25 03:30:31;;;;;;;4.32;2.40;;;21.60;71.30;;;;;;5031455;28;20116;-86
2022/07/25 03:32:58;;;;;;;4.13;2.92;;;21.70;70.80;;;;;;5015429;28;20038;-86
2022/07/25 03:35:25;;;;;;;3.90;2.60;;;21.60;70.60;;;;;;5009236;28;20049;-86
2022/07/25 03:37:53;;;;;;;6.82;3.25;;;21.60;70.60;;;;;;5025821;28;20046;-87
2022/07/25 03:40:20;;;;;;;5.40;2.63;;;21.60;70.80;;;;;;5031022;28;20037;-87
2022/07/25 03:42:48;;;;;;;5.13;2.60;;;21.50;70.20;;;;;;5009633;28;20494;-86
2022/07/25 03:45:16;;;;;;;11.98;2.47;;;21.50;70.30;;;;;;5047930;28;20510;-87
2022/07/25 03:47:43;;;;;;;5.55;2.70;;;21.60;70.80;;;;;;5031651;28;20068;-86
2022/07/25 03:50:11;;;;;;;6.05;2.40;;;21.70;70.70;;;;;;5014222;28;20068;-86
2022/07/25 03:52:38;;;;;;;16.42;3.17;;;21.70;71.00;;;;;;5009996;28;20049;-87
2022/07/25 03:55:08;;;;;;;4.75;2.50;;;21.70;70.50;;;;;;5026540;28;20144;-86
2022/07/25 03:57:36;;;;;;;5.47;2.78;;;21.80;70.90;;;;;;5001475;28;20052;-85
2022/07/25 04:00:06;;;;;;;4.38;2.38;;;21.80;71.30;;;;;;5026337;28;20059;-86
2022/07/25 04:02:34;;;;;;;4.57;2.47;;;21.80;70.90;;;;;;5029919;28;20049;-86
2022/07/25 04:05:02;;;;;;;3.90;2.70;;;21.70;70.70;;;;;;5031072;28;20075;-86
2022/07/25 04:07:29;;;;;;;7.72;2.65;;;21.80;70.90;;;;;;5009738;28;20511;-86
2022/07/25 04:09:57;;;;;;;4.78;2.60;;;21.80;70.90;;;;;;5029343;28;20045;-87
2022/07/25 04:12:25;;;;;;;6.00;2.65;;;21.90;71.00;;;;;;5025314;28;20065;-87
2022/07/25 04:14:52;;;;;;;4.97;2.60;;;21.90;71.40;;;;;;5026143;28;20042;-86
2022/07/25 04:17:20;;;;;;;8.07;3.10;;;22.00;71.50;;;;;;5030961;28;20045;-86
2022/07/25 04:19:47;;;;;;;4.40;2.80;;;21.90;71.50;;;;;;5014774;28;20076;-87
2022/07/25 04:22:15;;;;;;;4.20;2.50;;;22.00;71.60;;;;;;5027133;28;20122;-86
2022/07/25 04:24:42;;;;;;;4.15;2.75;;;22.10;71.70;;;;;;5031572;28;20042;-87
2022/07/25 04:27:09;;;;;;;7.00;2.72;;;22.10;70.90;;;;;;5005866;28;20128;-87
2022/07/25 04:29:37;;;;;;;4.82;2.60;;;22.10;71.20;;;;;;5033010;28;20072;-86
2022/07/25 04:32:05;;;;;;;4.18;2.60;;;22.20;70.30;;;;;;5035108;28;20091;-86
2022/07/25 04:34:32;;;;;;;5.15;2.80;;;22.20;70.20;;;;;;5029272;28;20490;-85
2022/07/25 04:37:00;;;;;;;8.90;2.63;;;22.30;71.20;;;;;;5058051;28;20038;-88
2022/07/25 04:39:27;;;;;;;3.53;2.60;;;22.30;71.10;;;;;;5047221;28;20041;-89
2022/07/25 04:41:54;;;;;;;6.47;2.70;;;22.40;70.00;;;;;;5013487;28;20132;-86
2022/07/25 04:44:21;;;;;;;5.78;2.28;;;22.50;70.00;;;;;;5031370;28;20387;-88
2022/07/25 04:46:49;;;;;;;7.22;3.03;;;22.50;69.50;;;;;;5034333;28;20140;-86
2022/07/25 04:49:16;;;;;;;5.65;2.35;;;22.50;68.70;;;;;;5014091;28;20054;-85
2022/07/25 04:51:43;;;;;;;7.88;2.40;;;22.60;68.50;;;;;;5033027;28;20033;-87
2022/07/25 04:54:10;;;;;;;3.40;2.58;;;22.70;68.30;;;;;;5067373;28;20041;-85
2022/07/25 04:56:38;;;;;;;4.32;2.25;;;22.80;67.90;;;;;;5049580;28;20133;-86
2022/07/25 04:59:05;;;;;;;3.83;2.28;;;22.80;67.40;;;;;;5015809;28;20095;-86
2022/07/25 05:01:34;;;;;;;4.20;2.30;;;22.90;66.40;;;;;;5054710;28;20049;-85
2022/07/25 05:04:02;;;;;;;4.13;2.45;;;22.90;66.60;;;;;;5037199;28;20090;-85
2022/07/25 05:06:30;;;;;;;3.75;2.22;;;23.00;66.20;;;;;;5008146;28;20053;-86
2022/07/25 05:08:57;;;;;;;2.90;2.20;;;23.10;66.00;;;;;;4995123;28;20519;-81
2022/07/25 05:11:24;;;;;;;4.35;1.90;;;23.20;66.00;;;;;;4989231;28;20068;-84
2022/07/25 05:13:52;;;;;;;4.30;2.08;;;23.20;64.90;;;;;;5022539;28;20494;-85
2022/07/25 05:16:19;;;;;;;7.28;2.55;;;23.40;65.20;;;;;;5001067;28;20107;-85
2022/07/25 05:18:46;;;;;;;4.28;2.15;;;23.50;65.20;;;;;;5007965;28;20050;-84
2022/07/25 05:21:14;;;;;;;5.43;2.13;;;23.60;64.60;;;;;;5044596;28;20773;-84
2022/07/25 05:23:41;;;;;;;3.05;2.08;;;23.80;64.40;;;;;;5025940;28;20060;-86
2022/07/25 05:26:09;;;;;;;5.10;2.15;;;24.00;64.50;;;;;;4989191;28;20059;-82
2022/07/25 05:28:36;;;;;;;7.32;3.00;;;24.00;62.80;;;;;;5030734;28;20359;-84
2022/07/25 05:31:03;;;;;;;3.63;2.22;;;24.10;63.00;;;;;;5021705;28;20123;-85
2022/07/25 05:33:32;;;;;;;4.40;2.47;;;24.30;63.30;;;;;;5055679;28;20053;-85
2022/07/25 05:36:00;;;;;;;4.43;2.30;;;24.50;62.30;;;;;;4991293;28;20041;-83
2022/07/25 05:38:27;;;;;;;7.07;3.05;;;24.50;61.10;;;;;;5026719;28;20053;-82
2022/07/25 05:40:55;;;;;;;2.75;2.10;;;24.60;61.10;;;;;;4993838;28;20049;-85
2022/07/25 05:43:22;;;;;;;2.83;2.53;;;24.60;61.00;;;;;;4994105;28;20555;-84
2022/07/25 05:45:50;;;;;;;2.58;1.98;;;24.70;62.30;;;;;;4980143;28;20131;-81
2022/07/25 05:48:17;;;;;;;4.63;2.45;;;24.90;60.70;;;;;;5020364;28;20490;-85
2022/07/25 05:50:44;;;;;;;4.63;2.70;;;25.00;60.20;;;;;;4986085;28;20052;-83
2022/07/25 05:53:12;;;;;;;3.25;2.35;;;25.20;60.10;;;;;;5010315;28;20587;-85
2022/07/25 05:55:39;;;;;;;4.22;2.50;;;25.30;60.00;;;;;;5000740;28;20425;-84
2022/07/25 05:58:08;;;;;;;2.60;2.28;;;25.40;59.80;;;;;;4997791;28;20049;-81
2022/07/25 06:00:36;;;;;;;4.55;2.25;;;25.50;59.10;;;;;;5013953;28;20044;-84
2022/07/25 06:03:04;;;;;;;3.28;2.60;;;25.50;58.60;;;;;;5004993;28;20052;-83
2022/07/25 06:05:32;;;;;;;3.58;2.40;;;25.70;59.00;;;;;;5002044;28;20420;-81
2022/07/25 06:07:59;;;;;;;4.75;2.58;;;25.70;58.20;;;;;;5031598;28;20100;-84
2022/07/25 06:10:27;;;;;;;3.97;2.60;;;25.80;58.70;;;;;;5008413;28;20513;-81
2022/07/25 06:12:54;;;;;;;3.88;2.22;;;25.90;58.70;;;;;;5008512;28;20049;-82
2022/07/25 06:15:21;;;;;;;4.35;2.20;;;26.10;59.50;;;;;;5000585;28;20065;-83
2022/07/25 06:17:53;;;;;;;5.35;2.42;;;26.20;58.80;;;;;;5030848;28;20204;-85
2022/07/25 06:20:21;;;;;;;4.10;2.42;;;26.20;58.20;;;;;;4986202;28;20188;-83
2022/07/25 06:22:48;;;;;;;4.43;2.58;;;26.30;58.40;;;;;;4997470;28;20051;-83
2022/07/25 06:25:16;;;;;;;4.70;2.67;;;26.50;58.20;;;;;;5015100;28;20151;-82
2022/07/25 06:27:43;;;;;;;3.53;2.08;;;26.50;57.70;;;;;;4994088;28;20155;-81
2022/07/25 06:30:14;;;;;;;4.78;2.80;;;26.60;57.40;;;;;;4978820;28;20044;-83
2022/07/25 06:32:49;;;;;;;3.47;2.30;;;26.60;57.20;;;;;;5012235;28;20135;-82
2022/07/25 06:35:17;;;;;;;4.20;2.42;;;26.80;58.00;;;;;;5012685;28;20052;-83
2022/07/25 06:37:45;;;;;;;2.80;2.35;;;26.80;56.60;;;;;;4982016;28;20051;-80
2022/07/25 06:40:13;;;;;;;4.38;2.53;;;26.80;56.30;;;;;;5006200;28;20183;-81
2022/07/25 06:42:44;;;;;;;3.60;1.98;;;26.80;56.40;;;;;;4988754;28;20049;-82
2022/07/25 06:45:13;;;;;;;2.83;2.13;;;27.00;56.40;;;;;;5025171;28;20187;-79
2022/07/25 06:47:42;;;;;;;3.55;1.98;;;27.10;55.70;;;;;;4981473;28;20057;-84
2022/07/25 06:50:17;;;;;;;3.35;2.03;;;27.10;55.30;;;;;;4978470;28;20051;-85
2022/07/25 06:52:47;;;;;;;2.08;1.80;;;27.20;54.20;;;;;;5001371;28;20482;-82
2022/07/25 06:55:15;;;;;;;3.38;2.10;;;27.20;55.00;;;;;;5008682;28;20048;-83
2022/07/25 06:57:45;;;;;;;3.17;1.80;;;27.30;54.10;;;;;;5018761;28;20045;-83
2022/07/25 07:00:14;;;;;;;3.92;1.80;;;27.40;54.30;;;;;;4976771;28;20058;-86
2022/07/25 07:02:57;;;;;;;2.03;1.83;;;27.50;53.50;;;;;;5013523;28;20049;-84
2022/07/25 07:05:27;;;;;;;2.22;1.85;;;27.50;54.00;;;;;;5007423;28;20258;-84
2022/07/25 07:07:54;;;;;;;2.33;1.63;;;27.60;54.00;;;;;;4981052;28;20056;-85
2022/07/25 07:10:22;;;;;;;2.63;1.73;;;27.70;53.30;;;;;;5012588;28;20076;-83
2022/07/25 07:12:50;;;;;;;2.10;1.90;;;27.80;54.40;;;;;;4989216;28;20056;-83
2022/07/25 07:15:17;;;;;;;3.38;1.60;;;28.00;53.10;;;;;;5005800;28;20053;-85
2022/07/25 07:17:45;;;;;;;1.70;1.40;;;28.00;52.50;;;;;;5022757;28;20072;-84
2022/07/25 07:20:12;;;;;;;5.97;2.05;;;28.10;53.10;;;;;;5010662;28;20048;-80
2022/07/25 07:22:48;;;;;;;3.70;1.70;;;28.30;52.50;;;;;;5026474;28;20068;-79
2022/07/25 07:25:18;;;;;;;3.28;1.63;;;28.30;51.60;;;;;;4985065;28;20088;-82
2022/07/25 07:27:46;;;;;;;3.40;1.45;;;28.40;51.80;;;;;;4994671;28;20051;-80
2022/07/25 07:30:14;;;;;;;4.00;1.40;;;28.40;51.50;;;;;;4971372;28;20060;-82
2022/07/25 07:32:48;;;;;;;4.65;1.80;;;28.40;51.20;;;;;;5011587;28;20110;-81
2022/07/25 07:35:16;;;;;;;3.40;1.75;;;28.40;51.40;;;;;;5026838;28;20858;-83
2022/07/25 07:37:44;;;;;;;4.40;1.52;;;28.40;50.90;;;;;;5022889;28;20081;-81
2022/07/25 07:40:13;;;;;;;2.35;1.77;;;28.40;51.70;;;;;;5027783;28;20136;-82
2022/07/25 07:42:46;;;;;;;2.20;1.73;;;28.50;51.70;;;;;;4979037;28;20192;-81
2022/07/25 07:45:16;;;;;;;2.22;1.67;;;28.60;51.60;;;;;;4994294;28;20104;-80
2022/07/25 07:47:47;;;;;;;3.63;1.85;;;28.60;50.50;;;;;;5039989;28;20064;-79
2022/07/25 07:50:17;;;;;;;3.47;1.70;;;28.60;50.90;;;;;;5012741;28;20076;-82
2022/07/25 07:52:45;;;;;;;5.20;1.70;;;28.70;51.80;;;;;;4987500;28;20052;-81
2022/07/25 07:57:59;;;;;;;2.40;1.95;;;28.90;51.00;;;;;;4992309;28;20052;-80
2022/07/25 08:00:29;;;;;;;2.65;1.52;;;28.70;51.40;;;;;;4996356;28;22519;-79
2022/07/25 08:02:58;;;;;;;3.10;1.63;;;28.90;50.40;;;;;;4979732;28;20060;-81
2022/07/25 08:05:28;;;;;;;3.78;1.77;;;29.00;51.30;;;;;;5033705;28;20048;-81
2022/07/25 08:07:56;;;;;;;4.93;1.80;;;29.20;51.40;;;;;;4997103;28;20049;-81
2022/07/25 08:10:29;;;;;;;2.70;1.75;;;29.40;51.30;;;;;;4992622;28;20052;-82
2022/07/25 08:12:58;;;;;;;2.00;1.80;;;29.20;50.10;;;;;;5035695;28;20060;-81
2022/07/25 08:15:26;;;;;;;2.47;1.67;;;29.20;50.10;;;;;;5002092;28;20072;-82
2022/07/25 08:17:53;;;;;;;4.50;2.00;;;29.20;50.60;;;;;;5016019;28;20825;-83
2022/07/25 08:20:23;;;;;;;3.97;2.65;;;28.70;50.40;;;;;;5005528;28;20053;-82
2022/07/25 08:23:04;;;;;;;2.80;1.60;;;29.00;52.80;;;;;;5008111;28;20060;-82
2022/07/25 08:25:33;;;;;;;1.63;1.45;;;29.10;50.20;;;;;;5006667;28;20052;-81
2022/07/25 08:28:01;;;;;;;5.13;1.65;;;29.20;50.60;;;;;;5006579;28;20497;-82
2022/07/25 08:30:28;;;;;;;4.00;2.33;;;29.40;50.40;;;;;;4998661;28;20056;-81
2022/07/25 08:32:58;;;;;;;4.68;1.90;;;29.50;50.50;;;;;;4996798;28;20042;-82
2022/07/25 08:35:27;;;;;;;3.72;1.70;;;29.50;50.20;;;;;;5010039;28;20118;-82
2022/07/25 08:37:56;;;;;;;3.53;2.17;;;29.50;49.90;;;;;;4996910;28;20064;-80
2022/07/25 08:40:26;;;;;;;2.20;2.00;;;29.50;49.30;;;;;;5011892;28;20052;-83
2022/07/25 08:42:55;;;;;;;3.45;1.80;;;29.50;49.30;;;;;;5036597;28;20549;-82
2022/07/25 08:45:24;;;;;;;4.07;1.83;;;29.50;50.90;;;;;;5038011;28;20058;-81
2022/07/25 08:47:53;;;;;;;4.15;1.83;;;29.70;50.30;;;;;;5039019;28;22346;-83
2022/07/25 08:50:27;;;;;;;4.20;2.03;;;29.70;49.80;;;;;;5035340;28;20049;-82
2022/07/25 08:52:56;;;;;;;4.30;2.08;;;29.80;50.30;;;;;;5015533;28;20132;-83
2022/07/25 08:55:44;;;;;;;3.90;2.13;;;29.90;49.70;;;;;;5024152;28;20128;-84
2022/07/25 08:58:13;;;;;;;3.58;2.17;;;30.00;49.90;;;;;;5040133;28;20053;-84
2022/07/25 09:00:41;;;;;;;3.60;2.08;;;30.00;50.20;;;;;;5025239;28;20050;-85
2022/07/25 09:03:09;;;;;;;9.25;2.75;;;30.00;50.00;;;;;;5020368;28;20049;-81
2022/07/25 09:05:38;;;;;;;3.75;2.10;;;29.90;49.70;;;;;;4987192;28;20054;-82
2022/07/25 09:08:07;;;;;;;2.85;2.20;;;29.80;49.30;;;;;;5021086;28;20076;-83
2022/07/25 09:10:35;;;;;;;2.78;2.10;;;29.80;49.30;;;;;;4993311;28;20057;-83
2022/07/25 09:13:12;;;;;;;5.50;2.13;;;29.70;48.80;;;;;;5038134;28;20868;-81
2022/07/25 09:15:44;;;;;;;3.45;2.15;;;29.70;48.80;;;;;;4993905;28;20127;-82
2022/07/25 09:18:15;;;;;;;3.92;2.33;;;29.50;48.80;;;;;;5012693;28;20050;-81
2022/07/25 09:20:45;;;;;;;6.63;2.42;;;29.30;48.50;;;;;;4978339;28;20906;-82
2022/07/25 09:23:34;;;;;;;2.42;1.98;;;29.40;48.70;;;;;;4980772;28;20145;-82
2022/07/25 09:26:13;;;;;;;2.90;2.05;;;29.60;49.50;;;;;;5009136;28;20409;-81
2022/07/25 09:28:46;;;;;;;3.22;1.98;;;29.60;47.70;;;;;;4972005;28;20223;-81
2022/07/25 09:31:15;;;;;;;2.63;1.98;;;29.60;47.60;;;;;;4977177;28;20045;-80
2022/07/25 09:33:55;;;;;;;3.97;2.15;;;29.20;47.70;;;;;;4965862;28;20045;-80
2022/07/25 09:36:22;;;;;;;3.00;1.92;;;29.50;49.30;;;;;;4971456;28;20949;-81
2022/07/25 09:38:54;;;;;;;2.65;2.00;;;29.80;49.30;;;;;;5007943;28;20080;-81
2022/07/25 09:41:31;;;;;;;3.55;2.17;;;29.80;48.20;;;;;;5017802;28;20045;-81
2022/07/25 09:43:59;;;;;;;2.10;1.80;;;29.90;47.70;;;;;;5018849;28;20809;-82
2022/07/25 09:46:31;;;;;;;1.88;1.67;;;29.90;48.70;;;;;;5024959;28;20057;-81
2022/07/25 09:48:59;;;;;;;2.90;2.20;;;29.90;48.00;;;;;;5019631;28;20460;-80
2022/07/25 09:51:27;;;;;;;2.33;1.85;;;29.70;47.20;;;;;;5028497;28;20069;-81
2022/07/25 09:53:55;;;;;;;3.08;1.88;;;29.60;47.30;;;;;;5028665;28;20049;-82
2022/07/25 09:56:23;;;;;;;2.28;1.92;;;29.90;48.00;;;;;;5024666;28;20188;-81
2022/07/25 09:58:51;;;;;;;3.20;1.92;;;29.90;47.70;;;;;;5027358;28;20455;-80
2022/07/25 10:01:26;;;;;;;6.03;1.80;;;29.70;46.20;;;;;;5020963;28;20045;-79
2022/07/25 10:04:11;;;;;;;2.97;1.75;;;29.80;46.80;;;;;;5021056;28;20045;-80
2022/07/25 10:07:06;;;;;;;4.47;1.98;;;29.90;47.10;;;;;;5011312;28;20046;-80
2022/07/25 10:09:44;;;;;;;4.35;1.70;;;29.90;46.50;;;;;;5023674;28;20104;-80
2022/07/25 10:12:14;;;;;;;3.55;1.60;;;29.90;47.20;;;;;;5013400;28;20045;-81
2022/07/25 10:14:41;;;;;;;3.22;1.80;;;29.80;45.90;;;;;;5021690;28;20077;-80
2022/07/25 10:17:20;;;;;;;3.58;2.35;;;29.90;46.80;;;;;;5000061;28;21000;-81
2022/07/25 10:19:48;;;;;;;6.18;2.42;;;30.00;48.00;;;;;;5022614;28;20045;-82
2022/07/25 10:22:34;;;;;;;2.50;1.90;;;29.90;47.30;;;;;;5022498;28;20055;-81
2022/07/25 10:25:21;;;;;;;2.80;1.92;;;29.90;47.50;;;;;;5015036;28;20053;-82
2022/07/25 10:27:57;;;;;;;2.38;1.90;;;30.10;49.10;;;;;;5015515;28;20053;-84
2022/07/25 10:30:27;;;;;;;2.20;1.88;;;30.10;48.10;;;;;;5001027;28;20136;-83
2022/07/25 10:32:57;;;;;;;2.40;1.90;;;30.20;48.70;;;;;;5017974;28;20066;-82
2022/07/25 10:35:27;;;;;;;4.38;2.00;;;30.20;48.50;;;;;;5016303;28;20133;-82
2022/07/25 10:37:56;;;;;;;4.70;2.10;;;30.10;48.30;;;;;;5012331;28;20038;-85
2022/07/25 10:40:27;;;;;;;2.88;1.90;;;30.00;47.70;;;;;;5013833;28;20041;-83
2022/07/25 10:43:20;;;;;;;3.85;1.90;;;30.00;48.00;;;;;;5025398;28;20056;-82
2022/07/25 10:45:56;;;;;;;2.40;1.90;;;30.20;49.40;;;;;;4996949;28;20494;-81
2022/07/25 10:48:25;;;;;;;3.90;2.17;;;30.40;48.90;;;;;;5037183;28;20054;-81
2022/07/25 10:51:05;;;;;;;4.88;2.78;;;30.30;47.80;;;;;;5007485;28;20045;-81
2022/07/25 10:53:34;;;;;;;4.60;2.20;;;30.40;49.00;;;;;;5000061;28;20045;-81
2022/07/25 10:56:09;;;;;;;2.85;2.22;;;30.50;48.70;;;;;;5006774;28;20050;-82
2022/07/25 10:58:53;;;;;;;4.72;2.10;;;30.40;47.60;;;;;;5007784;28;20041;-82
2022/07/25 11:01:29;;;;;;;5.22;2.20;;;30.30;46.90;;;;;;5003716;28;20088;-80
2022/07/25 11:04:02;;;;;;;2.70;1.83;;;30.20;48.30;;;;;;5001444;28;22676;-83
2022/07/25 11:06:34;;;;;;;3.95;2.00;;;30.40;47.60;;;;;;5023228;28;20795;-81
2022/07/25 11:09:12;;;;;;;3.78;1.70;;;30.40;47.10;;;;;;5042739;28;20045;-81
2022/07/25 11:11:48;;;;;;;4.03;2.33;;;30.40;46.90;;;;;;5033372;28;20073;-81
2022/07/25 11:14:40;;;;;;;4.57;1.92;;;30.40;47.20;;;;;;5028610;28;20059;-81
2022/07/25 11:17:17;;;;;;;2.42;2.17;;;30.40;47.20;;;;;;5009344;28;20045;-81
2022/07/25 11:19:54;;;;;;;4.30;2.35;;;30.30;47.10;;;;;;5024751;28;20041;-81
2022/07/25 11:22:21;;;;;;;2.33;1.65;;;30.30;46.90;;;;;;5025508;28;20045;-81
2022/07/25 11:24:49;;;;;;;3.15;2.10;;;30.40;46.60;;;;;;5032731;28;20037;-81
2022/07/25 11:27:27;;;;;;;3.00;1.83;;;30.20;45.70;;;;;;5027492;28;20482;-81
2022/07/25 11:36:05;;;;;;;3.20;1.80;;;30.40;46.20;;;;;;4866884;29;20059;-84
2022/07/25 11:38:36;;;;;;;3.30;1.73;;;30.60;46.20;;;;;;4892888;29;20045;-84
2022/07/25 11:41:03;;;;;;;2.60;1.63;;;30.70;44.90;;;;;;4877975;29;20060;-82
2022/07/25 11:43:30;;;;;;;1.75;1.60;;;30.60;44.60;;;;;;4893483;29;20052;-81
2022/07/25 11:46:05;;;;;;;4.05;1.73;;;30.30;43.80;;;;;;4887337;29;20048;-82
2022/07/25 11:48:38;;;;;;;2.17;1.63;;;30.20;45.00;;;;;;4885401;29;20597;-85
2022/07/25 11:51:12;;;;;;;3.22;1.90;;;30.50;45.60;;;;;;4894943;29;20064;-83
2022/07/25 11:53:49;;;;;;;3.30;1.60;;;30.60;46.10;;;;;;4899392;29;20491;-86
2022/07/25 11:56:22;;;;;;;5.75;1.75;;;30.70;44.50;;;;;;4904051;29;20067;-83
2022/07/25 11:59:09;;;;;;;;;;;30.80;45.70;;;;;;4909093;29;20200;-81
2022/07/25 12:01:43;;;;;;;2.53;1.70;;;30.80;43.90;;;;;;4891654;29;19970;-82
2022/07/25 12:04:18;;;;;;;3.05;1.50;;;30.70;43.10;;;;;;4898361;29;20052;-83
2022/07/25 12:06:47;;;;;;;3.00;1.33;;;30.70;44.10;;;;;;4890539;29;20049;-82
2022/07/25 12:09:18;;;;;;;4.28;1.58;;;30.80;43.00;;;;;;4892754;29;20043;-83
2022/07/25 12:11:47;;;;;;;1.90;1.52;;;30.90;43.70;;;;;;4892066;29;20386;-83
2022/07/25 12:14:15;;;;;;;5.78;1.70;;;30.90;42.30;;;;;;4877350;29;20087;-83
2022/07/25 12:16:42;;;;;;;2.15;1.25;;;30.90;42.90;;;;;;4895968;29;20060;-83
2022/07/25 12:19:19;;;;;;;2.00;1.42;;;31.00;42.60;;;;;;4880089;29;20061;-82
2022/07/25 12:21:46;;;;;;;2.08;1.40;;;30.80;40.60;;;;;;4878387;29;20052;-83
2022/07/25 12:24:13;;;;;;;2.50;1.30;;;30.80;41.70;;;;;;4872685;29;20049;-82
2022/07/25 12:26:41;;;;;;;4.15;1.50;;;30.90;41.80;;;;;;4888219;29;20079;-83
2022/07/25 12:29:08;;;;;;;4.38;1.13;;;30.90;41.40;;;;;;4905489;29;20853;-81
2022/07/25 12:31:36;;;;;;;2.58;1.38;;;31.00;41.70;;;;;;4892706;29;20044;-87
2022/07/25 12:34:03;;;;;;;2.38;1.30;;;31.00;41.40;;;;;;4874440;29;20517;-81
2022/07/25 12:36:33;;;;;;;2.58;1.40;;;31.00;41.00;;;;;;4892091;29;20409;-82
2022/07/25 12:39:01;;;;;;;3.58;1.60;;;31.00;41.90;;;;;;4888609;29;20059;-84
2022/07/25 12:41:28;;;;;;;4.78;1.52;;;31.00;41.70;;;;;;4891577;29;20052;-83
2022/07/25 12:43:57;;;;;;;4.78;1.80;;;31.10;43.30;;;;;;4889667;29;20053;-82
2022/07/25 12:46:24;;;;;;;4.13;1.35;;;31.20;42.10;;;;;;4891230;29;20080;-82
2022/07/25 12:48:52;;;;;;;2.58;1.45;;;31.00;42.40;;;;;;4906753;29;20044;-84
2022/07/25 12:51:20;;;;;;;4.20;1.38;;;31.00;42.10;;;;;;4874687;29;20052;-82
2022/07/25 12:53:48;;;;;;;1.98;1.33;;;31.10;42.20;;;;;;4871681;29;20041;-91
2022/07/25 12:56:15;;;;;;;2.42;1.30;;;31.10;41.80;;;;;;4896168;29;20083;-86
2022/07/25 12:58:42;;;;;;;4.15;1.48;;;31.20;42.60;;;;;;4911094;29;20666;-82
2022/07/25 13:01:12;;;;;;;2.78;1.27;;;31.20;41.50;;;;;;4910350;29;20433;-82
2022/07/25 13:03:39;;;;;;;2.65;1.60;;;31.10;40.90;;;;;;4896272;29;20041;-87
2022/07/25 13:06:07;;;;;;;5.18;1.88;;;31.10;41.10;;;;;;4888811;29;20095;-83
2022/07/25 13:11:51;;;;;;;2.80;1.30;;;31.20;40.30;;;;;;5589782;24;20890;-81